La Francia, Argentina
Current Conditions -  °F | °C
As of 7:00 PM on Tuesday 21 Oct 2014 (Local Time) from SACO Reporting Station
Clear Clear  
Wind Chill: 82°   Ceiling: Unl
Heat Index: 82°   Visibility: 6mi
Dew Point: 55°   Wind: 17mph
Humidity: 39%   Direction: 50°NE
Pressure: 29.97"   Gusts: NA
Location:  31.4°S, 62.63°W
Report Text: SACO 212200Z 05015KT CAVOK 28/13 Q1015
Loading
Personal Weather Stations






























Interactive Weather Map
Tropical Storm Tracking
New forecast layout! Learn more

10-Day Weather Forecast

Advertisements
Track Severe Weather on mobile